Grass Creek, Indiana
Current Conditions -  °F | °C
As of 3:35 AM on Friday 24 Oct 2014 (Local Time) from KRCR Reporting Station
Broken Clouds Broken Clouds  
Wind Chill: 46°   Ceiling: 6500
Heat Index: 46°   Visibility: 10mi
Dew Point: 43°   Wind: 0mph
Humidity: 87%   Direction: NA
Pressure: 30.09"   Gusts: NA
Location:  40.95°N, 86.4°W
Report Text: KRCR 240735Z AUTO 00000KT 10SM BKN065 08/06 A3009 RMK AO2
Loading
Personal Weather Stations






























Interactive Weather Map
Tropical Storm Tracking
New forecast layout! Learn more

10-Day Weather Forecast

Advertisements
Track Severe Weather on mobile